sensor_id;sensor_type;location;lat;lon;timestamp;temperature;humidity
15997;DHT22;8103;51.340;12.326;2023-07-31T00:01:40;17.30;99.90
15997;DHT22;8103;51.340;12.326;2023-07-31T00:04:07;17.20;99.90
15997;DHT22;8103;51.340;12.326;2023-07-31T00:06:34;17.20;99.90
15997;DHT22;8103;51.340;12.326;2023-07-31T00:09:01;17.20;99.90
15997;DHT22;8103;51.340;12.326;2023-07-31T00:11:28;17.10;99.90
15997;DHT22;8103;51.340;12.326;2023-07-31T00:13:54;17.10;99.90
15997;DHT22;8103;51.340;12.326;2023-07-31T00:16:21;17.10;99.90
15997;DHT22;8103;51.340;12.326;2023-07-31T00:18:48;17.00;99.90
15997;DHT22;8103;51.340;12.326;2023-07-31T00:21:15;17.00;99.90
15997;DHT22;8103;51.340;12.326;2023-07-31T00:23:42;17.00;99.90
15997;DHT22;8103;51.340;12.326;2023-07-31T00:26:08;16.90;99.90
15997;DHT22;8103;51.340;12.326;2023-07-31T00:28:35;16.90;99.90
15997;DHT22;8103;51.340;12.326;2023-07-31T00:31:02;17.00;99.90
15997;DHT22;8103;51.340;12.326;2023-07-31T00:33:31;16.90;99.90
15997;DHT22;8103;51.340;12.326;2023-07-31T00:35:58;17.00;99.90
15997;DHT22;8103;51.340;12.326;2023-07-31T00:38:24;17.00;99.90
15997;DHT22;8103;51.340;12.326;2023-07-31T00:40:52;17.00;99.90
15997;DHT22;8103;51.340;12.326;2023-07-31T00:43:19;17.00;99.90
15997;DHT22;8103;51.340;12.326;2023-07-31T00:45:45;17.10;99.90
15997;DHT22;8103;51.340;12.326;2023-07-31T00:48:12;17.10;99.90
15997;DHT22;8103;51.340;12.326;2023-07-31T00:50:39;17.10;99.90
15997;DHT22;8103;51.340;12.326;2023-07-31T00:53:07;17.10;99.90
15997;DHT22;8103;51.340;12.326;2023-07-31T00:55:33;17.20;99.90
15997;DHT22;8103;51.340;12.326;2023-07-31T00:58:00;17.20;99.90
15997;DHT22;8103;51.340;12.326;2023-07-31T01:00:27;17.20;99.90
15997;DHT22;8103;51.340;12.326;2023-07-31T01:02:54;17.20;99.90
15997;DHT22;8103;51.340;12.326;2023-07-31T01:05:29;17.20;99.90
15997;DHT22;8103;51.340;12.326;2023-07-31T01:11:09;17.30;99.90
15997;DHT22;8103;51.340;12.326;2023-07-31T01:13:37;17.30;99.90
15997;DHT22;8103;51.340;12.326;2023-07-31T01:16:04;17.40;99.90
15997;DHT22;8103;51.340;12.326;2023-07-31T01:18:34;17.40;99.90
15997;DHT22;8103;51.340;12.326;2023-07-31T01:27:21;17.50;99.70
15997;DHT22;8103;51.340;12.326;2023-07-31T01:29:56;17.50;99.40
15997;DHT22;8103;51.340;12.326;2023-07-31T01:32:25;17.50;99.30
15997;DHT22;8103;51.340;12.326;2023-07-31T01:34:55;17.50;99.30
15997;DHT22;8103;51.340;12.326;2023-07-31T01:37:28;17.50;99.40
15997;DHT22;8103;51.340;12.326;2023-07-31T01:39:56;17.50;99.70
15997;DHT22;8103;51.340;12.326;2023-07-31T01:42:23;17.50;99.90
15997;DHT22;8103;51.340;12.326;2023-07-31T01:44:50;17.40;99.90
15997;DHT22;8103;51.340;12.326;2023-07-31T01:47:17;17.30;99.90
15997;DHT22;8103;51.340;12.326;2023-07-31T01:49:43;17.10;99.90
15997;DHT22;8103;51.340;12.326;2023-07-31T01:52:10;17.00;99.90
15997;DHT22;8103;51.340;12.326;2023-07-31T01:54:37;16.90;99.90
15997;DHT22;8103;51.340;12.326;2023-07-31T01:57:04;16.90;99.90
15997;DHT22;8103;51.340;12.326;2023-07-31T01:59:30;16.90;99.90
15997;DHT22;8103;51.340;12.326;2023-07-31T02:01:57;16.90;99.90
15997;DHT22;8103;51.340;12.326;2023-07-31T02:04:24;16.90;99.90
15997;DHT22;8103;51.340;12.326;2023-07-31T02:06:50;16.90;99.90
15997;DHT22;8103;51.340;12.326;2023-07-31T02:09:17;16.90;99.90
15997;DHT22;8103;51.340;12.326;2023-07-31T02:11:44;17.00;99.90
15997;DHT22;8103;51.340;12.326;2023-07-31T02:14:10;17.00;99.90
15997;DHT22;8103;51.340;12.326;2023-07-31T02:16:37;17.00;99.90
15997;DHT22;8103;51.340;12.326;2023-07-31T02:19:04;17.00;99.90
15997;DHT22;8103;51.340;12.326;2023-07-31T02:21:31;17.00;99.90
15997;DHT22;8103;51.340;12.326;2023-07-31T02:23:57;17.00;99.90
15997;DHT22;8103;51.340;12.326;2023-07-31T02:26:24;17.00;99.90
15997;DHT22;8103;51.340;12.326;2023-07-31T02:28:51;17.00;99.90
15997;DHT22;8103;51.340;12.326;2023-07-31T02:31:17;16.90;99.90
15997;DHT22;8103;51.340;12.326;2023-07-31T02:33:46;16.90;99.90
15997;DHT22;8103;51.340;12.326;2023-07-31T02:36:13;16.90;99.90
15997;DHT22;8103;51.340;12.326;2023-07-31T02:38:41;16.80;99.90
15997;DHT22;8103;51.340;12.326;2023-07-31T02:41:07;16.80;99.90
15997;DHT22;8103;51.340;12.326;2023-07-31T02:43:34;16.80;99.90
15997;DHT22;8103;51.340;12.326;2023-07-31T02:46:01;16.80;99.90
15997;DHT22;8103;51.340;12.326;2023-07-31T02:48:27;16.70;99.90
15997;DHT22;8103;51.340;12.326;2023-07-31T02:50:54;16.70;99.90
15997;DHT22;8103;51.340;12.326;2023-07-31T02:53:21;16.70;99.90
15997;DHT22;8103;51.340;12.326;2023-07-31T02:55:49;16.70;99.90
15997;DHT22;8103;51.340;12.326;2023-07-31T02:58:16;16.70;99.90
15997;DHT22;8103;51.340;12.326;2023-07-31T03:00:43;16.60;99.90
15997;DHT22;8103;51.340;12.326;2023-07-31T03:03:10;16.60;99.90
15997;DHT22;8103;51.340;12.326;2023-07-31T03:05:38;16.60;99.90
15997;DHT22;8103;51.340;12.326;2023-07-31T03:08:04;16.60;99.90
15997;DHT22;8103;51.340;12.326;2023-07-31T03:10:31;16.60;99.90
15997;DHT22;8103;51.340;12.326;2023-07-31T03:12:58;16.50;99.90
15997;DHT22;8103;51.340;12.326;2023-07-31T03:15:24;16.50;99.90
15997;DHT22;8103;51.340;12.326;2023-07-31T03:17:51;16.50;99.90
15997;DHT22;8103;51.340;12.326;2023-07-31T03:20:18;16.50;99.90
15997;DHT22;8103;51.340;12.326;2023-07-31T03:22:45;16.50;99.90
15997;DHT22;8103;51.340;12.326;2023-07-31T03:25:12;16.50;99.90
15997;DHT22;8103;51.340;12.326;2023-07-31T03:27:39;16.50;99.90
15997;DHT22;8103;51.340;12.326;2023-07-31T03:30:06;16.50;99.90
15997;DHT22;8103;51.340;12.326;2023-07-31T03:32:33;16.50;99.90
15997;DHT22;8103;51.340;12.326;2023-07-31T03:35:00;16.50;99.90
15997;DHT22;8103;51.340;12.326;2023-07-31T03:37:27;16.50;99.90
15997;DHT22;8103;51.340;12.326;2023-07-31T03:39:53;16.50;99.90
15997;DHT22;8103;51.340;12.326;2023-07-31T03:42:20;16.40;99.90
15997;DHT22;8103;51.340;12.326;2023-07-31T03:44:47;16.40;99.90
15997;DHT22;8103;51.340;12.326;2023-07-31T03:47:13;16.30;99.90
15997;DHT22;8103;51.340;12.326;2023-07-31T03:49:40;16.20;99.90
15997;DHT22;8103;51.340;12.326;2023-07-31T03:52:07;16.20;99.90
15997;DHT22;8103;51.340;12.326;2023-07-31T03:54:34;16.10;99.90
15997;DHT22;8103;51.340;12.326;2023-07-31T03:57:00;16.10;99.90
15997;DHT22;8103;51.340;12.326;2023-07-31T03:59:27;16.10;99.90
15997;DHT22;8103;51.340;12.326;2023-07-31T04:01:54;16.10;99.90
15997;DHT22;8103;51.340;12.326;2023-07-31T04:04:20;16.20;99.90
15997;DHT22;8103;51.340;12.326;2023-07-31T04:06:47;16.20;99.90
15997;DHT22;8103;51.340;12.326;2023-07-31T04:09:14;16.20;99.90
15997;DHT22;8103;51.340;12.326;2023-07-31T04:11:40;16.30;99.90
15997;DHT22;8103;51.340;12.326;2023-07-31T04:14:07;16.30;99.90
15997;DHT22;8103;51.340;12.326;2023-07-31T04:16:34;16.30;99.90
15997;DHT22;8103;51.340;12.326;2023-07-31T04:19:00;16.30;99.90
15997;DHT22;8103;51.340;12.326;2023-07-31T04:21:27;16.30;99.90
15997;DHT22;8103;51.340;12.326;2023-07-31T04:23:54;16.40;99.90
15997;DHT22;8103;51.340;12.326;2023-07-31T04:26:22;16.40;99.90
15997;DHT22;8103;51.340;12.326;2023-07-31T04:28:49;16.40;99.90
15997;DHT22;8103;51.340;12.326;2023-07-31T04:31:16;16.50;99.90
15997;DHT22;8103;51.340;12.326;2023-07-31T04:33:42;16.50;99.90
15997;DHT22;8103;51.340;12.326;2023-07-31T04:36:09;16.50;99.90
15997;DHT22;8103;51.340;12.326;2023-07-31T04:38:36;16.50;99.90
15997;DHT22;8103;51.340;12.326;2023-07-31T04:41:02;16.50;99.90
15997;DHT22;8103;51.340;12.326;2023-07-31T04:43:30;16.30;99.90
15997;DHT22;8103;51.340;12.326;2023-07-31T04:45:57;16.20;99.90
15997;DHT22;8103;51.340;12.326;2023-07-31T04:48:24;16.10;99.90
15997;DHT22;8103;51.340;12.326;2023-07-31T04:50:51;16.00;99.90
15997;DHT22;8103;51.340;12.326;2023-07-31T04:53:18;15.90;99.90
15997;DHT22;8103;51.340;12.326;2023-07-31T04:55:45;15.60;99.90
15997;DHT22;8103;51.340;12.326;2023-07-31T04:58:12;15.50;99.90
15997;DHT22;8103;51.340;12.326;2023-07-31T05:00:39;15.40;99.90
15997;DHT22;8103;51.340;12.326;2023-07-31T05:03:05;15.30;99.90
15997;DHT22;8103;51.340;12.326;2023-07-31T05:05:33;15.20;99.90
15997;DHT22;8103;51.340;12.326;2023-07-31T05:08:00;15.20;99.90
15997;DHT22;8103;51.340;12.326;2023-07-31T05:10:27;15.30;99.90
15997;DHT22;8103;51.340;12.326;2023-07-31T05:12:53;15.30;99.90
15997;DHT22;8103;51.340;12.326;2023-07-31T05:15:20;15.30;99.90
15997;DHT22;8103;51.340;12.326;2023-07-31T05:17:49;15.40;99.90
15997;DHT22;8103;51.340;12.326;2023-07-31T05:20:16;15.40;99.90
15997;DHT22;8103;51.340;12.326;2023-07-31T05:22:43;15.30;99.90
15997;DHT22;8103;51.340;12.326;2023-07-31T05:25:10;15.30;99.90
15997;DHT22;8103;51.340;12.326;2023-07-31T05:27:36;15.30;99.90
15997;DHT22;8103;51.340;12.326;2023-07-31T05:33:51;15.40;99.90
15997;DHT22;8103;51.340;12.326;2023-07-31T05:36:17;15.40;99.90
15997;DHT22;8103;51.340;12.326;2023-07-31T05:38:44;15.40;99.90
15997;DHT22;8103;51.340;12.326;2023-07-31T05:41:12;15.40;99.90
15997;DHT22;8103;51.340;12.326;2023-07-31T05:43:39;15.50;99.90
15997;DHT22;8103;51.340;12.326;2023-07-31T05:46:06;15.50;99.90
15997;DHT22;8103;51.340;12.326;2023-07-31T05:48:33;15.60;99.90
15997;DHT22;8103;51.340;12.326;2023-07-31T05:51:03;15.80;99.90
15997;DHT22;8103;51.340;12.326;2023-07-31T05:53:30;15.80;99.90
15997;DHT22;8103;51.340;12.326;2023-07-31T05:55:56;15.80;99.90
15997;DHT22;8103;51.340;12.326;2023-07-31T05:58:23;15.90;99.90
15997;DHT22;8103;51.340;12.326;2023-07-31T06:00:50;16.00;99.90
15997;DHT22;8103;51.340;12.326;2023-07-31T06:03:16;16.00;99.90
15997;DHT22;8103;51.340;12.326;2023-07-31T06:05:43;16.10;99.90
15997;DHT22;8103;51.340;12.326;2023-07-31T06:08:10;16.20;99.90
15997;DHT22;8103;51.340;12.326;2023-07-31T06:10:38;16.20;99.90
15997;DHT22;8103;51.340;12.326;2023-07-31T06:13:05;16.30;99.90
15997;DHT22;8103;51.340;12.326;2023-07-31T06:15:32;16.30;99.90
15997;DHT22;8103;51.340;12.326;2023-07-31T06:17:58;16.40;99.90
15997;DHT22;8103;51.340;12.326;2023-07-31T06:20:28;16.40;99.90
15997;DHT22;8103;51.340;12.326;2023-07-31T06:22:55;16.50;99.90
15997;DHT22;8103;51.340;12.326;2023-07-31T06:25:22;16.60;99.90
15997;DHT22;8103;51.340;12.326;2023-07-31T06:27:48;16.60;99.90
15997;DHT22;8103;51.340;12.326;2023-07-31T06:30:15;16.70;99.90
15997;DHT22;8103;51.340;12.326;2023-07-31T06:32:42;16.80;99.90
15997;DHT22;8103;51.340;12.326;2023-07-31T06:35:09;16.90;99.90
15997;DHT22;8103;51.340;12.326;2023-07-31T06:37:36;16.90;99.90
15997;DHT22;8103;51.340;12.326;2023-07-31T06:40:07;16.90;99.90
15997;DHT22;8103;51.340;12.326;2023-07-31T06:46:23;17.00;99.90
15997;DHT22;8103;51.340;12.326;2023-07-31T06:48:51;17.10;99.90
15997;DHT22;8103;51.340;12.326;2023-07-31T06:51:18;17.20;99.90
15997;DHT22;8103;51.340;12.326;2023-07-31T06:53:44;17.30;99.90
15997;DHT22;8103;51.340;12.326;2023-07-31T06:56:12;17.30;99.90
15997;DHT22;8103;51.340;12.326;2023-07-31T06:58:39;17.40;99.90
15997;DHT22;8103;51.340;12.326;2023-07-31T07:04:53;17.50;99.90
15997;DHT22;8103;51.340;12.326;2023-07-31T07:07:19;17.50;99.90
15997;DHT22;8103;51.340;12.326;2023-07-31T07:09:46;17.50;99.90
15997;DHT22;8103;51.340;12.326;2023-07-31T07:12:13;17.60;99.90
15997;DHT22;8103;51.340;12.326;2023-07-31T07:14:39;17.60;99.90
15997;DHT22;8103;51.340;12.326;2023-07-31T07:17:06;17.60;99.90
15997;DHT22;8103;51.340;12.326;2023-07-31T07:19:33;17.70;99.90
15997;DHT22;8103;51.340;12.326;2023-07-31T07:22:00;17.70;99.90
15997;DHT22;8103;51.340;12.326;2023-07-31T07:24:28;17.80;99.90
15997;DHT22;8103;51.340;12.326;2023-07-31T07:26:55;17.80;99.90
15997;DHT22;8103;51.340;12.326;2023-07-31T07:29:22;17.80;99.90
15997;DHT22;8103;51.340;12.326;2023-07-31T07:31:49;17.90;99.90
15997;DHT22;8103;51.340;12.326;2023-07-31T07:34:16;17.90;99.90
15997;DHT22;8103;51.340;12.326;2023-07-31T07:36:43;17.90;99.90
15997;DHT22;8103;51.340;12.326;2023-07-31T07:39:10;18.00;99.90
15997;DHT22;8103;51.340;12.326;2023-07-31T07:41:37;18.00;99.90
15997;DHT22;8103;51.340;12.326;2023-07-31T07:44:04;18.00;99.90
15997;DHT22;8103;51.340;12.326;2023-07-31T07:46:31;18.10;99.90
15997;DHT22;8103;51.340;12.326;2023-07-31T07:48:57;18.20;99.90
15997;DHT22;8103;51.340;12.326;2023-07-31T07:51:24;18.30;99.90
15997;DHT22;8103;51.340;12.326;2023-07-31T07:53:51;18.40;99.90
15997;DHT22;8103;51.340;12.326;2023-07-31T07:56:17;18.50;99.90
15997;DHT22;8103;51.340;12.326;2023-07-31T07:58:44;18.60;99.90
15997;DHT22;8103;51.340;12.326;2023-07-31T08:01:12;18.70;99.90
15997;DHT22;8103;51.340;12.326;2023-07-31T08:03:42;18.70;99.90
15997;DHT22;8103;51.340;12.326;2023-07-31T08:06:09;18.80;99.90
15997;DHT22;8103;51.340;12.326;2023-07-31T08:08:37;18.80;99.90
15997;DHT22;8103;51.340;12.326;2023-07-31T08:11:04;18.90;99.90
15997;DHT22;8103;51.340;12.326;2023-07-31T08:13:30;18.90;99.90
15997;DHT22;8103;51.340;12.326;2023-07-31T08:15:57;18.90;99.90
15997;DHT22;8103;51.340;12.326;2023-07-31T08:18:24;19.00;99.90
15997;DHT22;8103;51.340;12.326;2023-07-31T08:20:51;19.00;99.90
15997;DHT22;8103;51.340;12.326;2023-07-31T08:23:17;19.00;99.90
15997;DHT22;8103;51.340;12.326;2023-07-31T08:25:45;19.10;99.90
15997;DHT22;8103;51.340;12.326;2023-07-31T08:28:11;19.30;99.90
15997;DHT22;8103;51.340;12.326;2023-07-31T08:30:38;19.40;99.90
15997;DHT22;8103;51.340;12.326;2023-07-31T08:33:05;19.70;99.90
15997;DHT22;8103;51.340;12.326;2023-07-31T08:35:32;19.90;99.90
15997;DHT22;8103;51.340;12.326;2023-07-31T08:37:58;20.00;99.90
15997;DHT22;8103;51.340;12.326;2023-07-31T08:40:25;20.20;99.90
15997;DHT22;8103;51.340;12.326;2023-07-31T08:42:54;20.40;99.90
15997;DHT22;8103;51.340;12.326;2023-07-31T08:45:23;20.60;99.90
15997;DHT22;8103;51.340;12.326;2023-07-31T08:47:51;20.60;99.40
15997;DHT22;8103;51.340;12.326;2023-07-31T08:50:19;20.70;99.00
15997;DHT22;8103;51.340;12.326;2023-07-31T08:52:50;20.70;99.10
15997;DHT22;8103;51.340;12.326;2023-07-31T08:55:17;20.70;98.50
15997;DHT22;8103;51.340;12.326;2023-07-31T08:57:44;20.70;98.60
15997;DHT22;8103;51.340;12.326;2023-07-31T09:00:13;20.70;98.60
15997;DHT22;8103;51.340;12.326;2023-07-31T09:05:26;20.70;98.40
15997;DHT22;8103;51.340;12.326;2023-07-31T09:07:56;20.70;98.00
15997;DHT22;8103;51.340;12.326;2023-07-31T09:10:24;20.70;98.10
15997;DHT22;8103;51.340;12.326;2023-07-31T09:12:51;20.80;98.00
15997;DHT22;8103;51.340;12.326;2023-07-31T09:15:19;20.80;97.70
15997;DHT22;8103;51.340;12.326;2023-07-31T09:18:01;20.60;98.10
15997;DHT22;8103;51.340;12.326;2023-07-31T09:20:28;20.40;99.20
15997;DHT22;8103;51.340;12.326;2023-07-31T09:22:56;20.20;99.10
15997;DHT22;8103;51.340;12.326;2023-07-31T09:25:25;20.00;99.20
15997;DHT22;8103;51.340;12.326;2023-07-31T09:28:05;20.10;99.40
15997;DHT22;8103;51.340;12.326;2023-07-31T09:30:46;20.10;99.30
15997;DHT22;8103;51.340;12.326;2023-07-31T09:33:14;20.10;99.10
15997;DHT22;8103;51.340;12.326;2023-07-31T09:35:41;20.00;99.30
15997;DHT22;8103;51.340;12.326;2023-07-31T09:38:13;20.00;99.40
15997;DHT22;8103;51.340;12.326;2023-07-31T09:40:45;20.00;99.40
15997;DHT22;8103;51.340;12.326;2023-07-31T09:43:19;19.90;99.80
15997;DHT22;8103;51.340;12.326;2023-07-31T09:45:47;19.90;99.70
15997;DHT22;8103;51.340;12.326;2023-07-31T09:48:18;19.80;99.90
15997;DHT22;8103;51.340;12.326;2023-07-31T09:50:47;19.80;99.80
15997;DHT22;8103;51.340;12.326;2023-07-31T09:53:15;19.90;99.90
15997;DHT22;8103;51.340;12.326;2023-07-31T09:59:31;20.00;99.80
15997;DHT22;8103;51.340;12.326;2023-07-31T10:01:58;20.10;99.70
15997;DHT22;8103;51.340;12.326;2023-07-31T10:04:27;20.10;99.90
15997;DHT22;8103;51.340;12.326;2023-07-31T10:06:55;19.80;99.90
15997;DHT22;8103;51.340;12.326;2023-07-31T10:13:10;19.40;99.90
15997;DHT22;8103;51.340;12.326;2023-07-31T10:15:38;20.00;99.90
15997;DHT22;8103;51.340;12.326;2023-07-31T10:18:08;20.70;99.90
15997;DHT22;8103;51.340;12.326;2023-07-31T10:20:35;21.50;99.90
15997;DHT22;8103;51.340;12.326;2023-07-31T10:23:03;22.40;97.20
15997;DHT22;8103;51.340;12.326;2023-07-31T10:25:30;22.70;94.40
15997;DHT22;8103;51.340;12.326;2023-07-31T10:27:58;22.70;93.80
15997;DHT22;8103;51.340;12.326;2023-07-31T10:30:27;22.60;94.00
15997;DHT22;8103;51.340;12.326;2023-07-31T10:32:56;22.50;94.10
15997;DHT22;8103;51.340;12.326;2023-07-31T10:35:23;22.50;93.80
15997;DHT22;8103;51.340;12.326;2023-07-31T10:37:51;22.30;93.80
15997;DHT22;8103;51.340;12.326;2023-07-31T10:40:28;22.10;94.10
15997;DHT22;8103;51.340;12.326;2023-07-31T10:42:56;21.90;94.60
15997;DHT22;8103;51.340;12.326;2023-07-31T10:45:34;21.70;94.80
15997;DHT22;8103;51.340;12.326;2023-07-31T10:48:04;21.60;95.40
15997;DHT22;8103;51.340;12.326;2023-07-31T10:50:36;21.60;95.20
15997;DHT22;8103;51.340;12.326;2023-07-31T10:53:03;21.80;95.30
15997;DHT22;8103;51.340;12.326;2023-07-31T10:55:42;22.10;95.10
15997;DHT22;8103;51.340;12.326;2023-07-31T10:58:12;22.70;93.50
15997;DHT22;8103;51.340;12.326;2023-07-31T11:00:41;23.50;92.10
15997;DHT22;8103;51.340;12.326;2023-07-31T11:03:15;24.20;89.20
15997;DHT22;8103;51.340;12.326;2023-07-31T11:06:01;24.20;86.70
15997;DHT22;8103;51.340;12.326;2023-07-31T11:08:32;23.80;88.10
15997;DHT22;8103;51.340;12.326;2023-07-31T11:15:59;23.60;89.20
15997;DHT22;8103;51.340;12.326;2023-07-31T11:18:27;23.50;88.30
15997;DHT22;8103;51.340;12.326;2023-07-31T11:20:54;23.50;88.60
15997;DHT22;8103;51.340;12.326;2023-07-31T11:23:22;23.50;87.80
15997;DHT22;8103;51.340;12.326;2023-07-31T11:25:49;23.50;88.20
15997;DHT22;8103;51.340;12.326;2023-07-31T11:28:18;23.60;88.60
15997;DHT22;8103;51.340;12.326;2023-07-31T11:30:46;23.90;86.80
15997;DHT22;8103;51.340;12.326;2023-07-31T11:33:13;24.10;85.60
15997;DHT22;8103;51.340;12.326;2023-07-31T11:35:48;24.40;83.80
15997;DHT22;8103;51.340;12.326;2023-07-31T11:38:29;24.60;82.40
15997;DHT22;8103;51.340;12.326;2023-07-31T11:40:59;24.30;81.20
15997;DHT22;8103;51.340;12.326;2023-07-31T11:43:26;24.10;82.60
15997;DHT22;8103;51.340;12.326;2023-07-31T11:49:40;23.90;83.30
15997;DHT22;8103;51.340;12.326;2023-07-31T11:52:07;23.70;84.40
15997;DHT22;8103;51.340;12.326;2023-07-31T11:54:34;23.50;85.20
15997;DHT22;8103;51.340;12.326;2023-07-31T11:57:01;23.40;85.30
15997;DHT22;8103;51.340;12.326;2023-07-31T11:59:28;23.30;86.40
15997;DHT22;8103;51.340;12.326;2023-07-31T12:01:55;23.20;86.50
15997;DHT22;8103;51.340;12.326;2023-07-31T12:04:22;23.00;87.50
15997;DHT22;8103;51.340;12.326;2023-07-31T12:06:52;22.70;90.10
15997;DHT22;8103;51.340;12.326;2023-07-31T12:09:22;22.30;89.10
15997;DHT22;8103;51.340;12.326;2023-07-31T12:11:50;22.10;90.40
15997;DHT22;8103;51.340;12.326;2023-07-31T12:14:24;22.20;91.20
15997;DHT22;8103;51.340;12.326;2023-07-31T12:17:05;22.30;89.30
15997;DHT22;8103;51.340;12.326;2023-07-31T12:19:33;22.50;89.50
15997;DHT22;8103;51.340;12.326;2023-07-31T12:22:14;22.60;87.70
15997;DHT22;8103;51.340;12.326;2023-07-31T12:24:42;22.80;87.20
15997;DHT22;8103;51.340;12.326;2023-07-31T12:27:15;23.20;85.20
15997;DHT22;8103;51.340;12.326;2023-07-31T12:29:42;23.70;83.60
15997;DHT22;8103;51.340;12.326;2023-07-31T12:32:21;23.90;83.20
15997;DHT22;8103;51.340;12.326;2023-07-31T12:34:48;23.90;82.10
15997;DHT22;8103;51.340;12.326;2023-07-31T12:37:15;23.90;82.20
15997;DHT22;8103;51.340;12.326;2023-07-31T12:39:42;24.30;81.20
15997;DHT22;8103;51.340;12.326;2023-07-31T12:42:09;24.80;78.70
15997;DHT22;8103;51.340;12.326;2023-07-31T12:44:35;24.90;77.60
15997;DHT22;8103;51.340;12.326;2023-07-31T12:47:02;24.70;78.10
15997;DHT22;8103;51.340;12.326;2023-07-31T12:49:30;24.70;78.90
15997;DHT22;8103;51.340;12.326;2023-07-31T12:51:57;24.80;78.30
15997;DHT22;8103;51.340;12.326;2023-07-31T12:54:24;24.80;79.10
15997;DHT22;8103;51.340;12.326;2023-07-31T12:56:50;24.90;79.30
15997;DHT22;8103;51.340;12.326;2023-07-31T12:59:17;24.90;79.00
15997;DHT22;8103;51.340;12.326;2023-07-31T13:01:44;25.20;78.00
15997;DHT22;8103;51.340;12.326;2023-07-31T13:04:11;26.30;74.80
15997;DHT22;8103;51.340;12.326;2023-07-31T13:06:37;27.10;70.60
15997;DHT22;8103;51.340;12.326;2023-07-31T13:09:05;27.10;69.80
15997;DHT22;8103;51.340;12.326;2023-07-31T13:11:31;27.20;69.00
15997;DHT22;8103;51.340;12.326;2023-07-31T13:13:58;28.40;67.40
15997;DHT22;8103;51.340;12.326;2023-07-31T13:16:25;30.10;60.10
15997;DHT22;8103;51.340;12.326;2023-07-31T13:18:52;30.30;57.20
15997;DHT22;8103;51.340;12.326;2023-07-31T13:21:19;29.40;55.70
15997;DHT22;8103;51.340;12.326;2023-07-31T13:23:48;28.20;57.70
15997;DHT22;8103;51.340;12.326;2023-07-31T13:26:15;27.80;58.90
15997;DHT22;8103;51.340;12.326;2023-07-31T13:28:41;27.40;59.20
15997;DHT22;8103;51.340;12.326;2023-07-31T13:31:08;26.90;60.40
15997;DHT22;8103;51.340;12.326;2023-07-31T13:33:35;27.50;59.90
15997;DHT22;8103;51.340;12.326;2023-07-31T13:36:04;29.30;56.90
15997;DHT22;8103;51.340;12.326;2023-07-31T13:38:31;30.10;53.70
15997;DHT22;8103;51.340;12.326;2023-07-31T13:40:58;30.40;52.90
15997;DHT22;8103;51.340;12.326;2023-07-31T13:43:25;30.90;51.80
15997;DHT22;8103;51.340;12.326;2023-07-31T13:45:52;30.60;51.60
15997;DHT22;8103;51.340;12.326;2023-07-31T13:48:18;30.40;51.50
15997;DHT22;8103;51.340;12.326;2023-07-31T13:50:45;29.40;52.90
15997;DHT22;8103;51.340;12.326;2023-07-31T13:53:12;28.10;55.30
15997;DHT22;8103;51.340;12.326;2023-07-31T13:55:38;27.30;57.70
15997;DHT22;8103;51.340;12.326;2023-07-31T13:58:05;26.60;59.50
15997;DHT22;8103;51.340;12.326;2023-07-31T14:00:32;26.10;61.60
15997;DHT22;8103;51.340;12.326;2023-07-31T14:02:58;25.60;63.60
15997;DHT22;8103;51.340;12.326;2023-07-31T14:05:25;25.10;66.00
15997;DHT22;8103;51.340;12.326;2023-07-31T14:07:52;24.70;68.20
15997;DHT22;8103;51.340;12.326;2023-07-31T14:10:19;24.40;69.50
15997;DHT22;8103;51.340;12.326;2023-07-31T14:12:46;24.00;71.10
15997;DHT22;8103;51.340;12.326;2023-07-31T14:15:12;23.70;72.40
15997;DHT22;8103;51.340;12.326;2023-07-31T14:17:39;23.40;74.40
15997;DHT22;8103;51.340;12.326;2023-07-31T14:20:07;23.30;75.70
15997;DHT22;8103;51.340;12.326;2023-07-31T14:22:34;23.20;76.00
15997;DHT22;8103;51.340;12.326;2023-07-31T14:25:01;23.00;76.50
15997;DHT22;8103;51.340;12.326;2023-07-31T14:27:28;23.00;77.70
15997;DHT22;8103;51.340;12.326;2023-07-31T14:29:55;22.90;77.60
15997;DHT22;8103;51.340;12.326;2023-07-31T14:32:22;22.90;78.20
15997;DHT22;8103;51.340;12.326;2023-07-31T14:34:52;22.90;78.90
15997;DHT22;8103;51.340;12.326;2023-07-31T14:37:19;23.10;78.50
15997;DHT22;8103;51.340;12.326;2023-07-31T14:39:46;23.30;76.70
15997;DHT22;8103;51.340;12.326;2023-07-31T14:42:13;23.80;74.90
15997;DHT22;8103;51.340;12.326;2023-07-31T14:44:39;23.80;73.90
15997;DHT22;8103;51.340;12.326;2023-07-31T14:47:06;23.70;73.50
15997;DHT22;8103;51.340;12.326;2023-07-31T14:49:33;23.50;74.00
15997;DHT22;8103;51.340;12.326;2023-07-31T14:51:59;23.40;74.70
15997;DHT22;8103;51.340;12.326;2023-07-31T14:54:26;23.30;74.70
15997;DHT22;8103;51.340;12.326;2023-07-31T14:56:53;23.10;75.00
15997;DHT22;8103;51.340;12.326;2023-07-31T14:59:20;22.90;75.60
15997;DHT22;8103;51.340;12.326;2023-07-31T15:01:46;22.80;76.40
15997;DHT22;8103;51.340;12.326;2023-07-31T15:04:13;22.80;76.90
15997;DHT22;8103;51.340;12.326;2023-07-31T15:06:40;22.70;77.00
15997;DHT22;8103;51.340;12.326;2023-07-31T15:09:06;22.70;77.20
15997;DHT22;8103;51.340;12.326;2023-07-31T15:11:33;22.70;77.00
15997;DHT22;8103;51.340;12.326;2023-07-31T15:14:00;22.70;77.30
15997;DHT22;8103;51.340;12.326;2023-07-31T15:16:27;22.90;77.00
15997;DHT22;8103;51.340;12.326;2023-07-31T15:18:55;23.00;76.40
15997;DHT22;8103;51.340;12.326;2023-07-31T15:21:22;23.20;76.20
15997;DHT22;8103;51.340;12.326;2023-07-31T15:23:48;23.20;76.00
15997;DHT22;8103;51.340;12.326;2023-07-31T15:26:15;23.20;76.30
15997;DHT22;8103;51.340;12.326;2023-07-31T15:28:50;23.10;76.70
15997;DHT22;8103;51.340;12.326;2023-07-31T15:31:21;22.90;77.50
15997;DHT22;8103;51.340;12.326;2023-07-31T15:33:48;22.80;77.80
15997;DHT22;8103;51.340;12.326;2023-07-31T15:36:15;22.60;78.50
15997;DHT22;8103;51.340;12.326;2023-07-31T15:38:43;22.60;79.10
15997;DHT22;8103;51.340;12.326;2023-07-31T15:41:10;22.50;79.50
15997;DHT22;8103;51.340;12.326;2023-07-31T15:43:37;22.50;79.70
15997;DHT22;8103;51.340;12.326;2023-07-31T15:46:03;22.40;80.30
15997;DHT22;8103;51.340;12.326;2023-07-31T15:48:30;22.40;80.30
15997;DHT22;8103;51.340;12.326;2023-07-31T15:50:57;22.40;80.90
15997;DHT22;8103;51.340;12.326;2023-07-31T15:53:23;22.40;81.10
15997;DHT22;8103;51.340;12.326;2023-07-31T15:55:50;22.50;81.10
15997;DHT22;8103;51.340;12.326;2023-07-31T15:58:17;22.60;80.80
15997;DHT22;8103;51.340;12.326;2023-07-31T16:00:44;22.70;80.70
15997;DHT22;8103;51.340;12.326;2023-07-31T16:03:10;22.70;80.40
15997;DHT22;8103;51.340;12.326;2023-07-31T16:05:37;22.60;80.70
15997;DHT22;8103;51.340;12.326;2023-07-31T16:08:04;22.60;81.80
15997;DHT22;8103;51.340;12.326;2023-07-31T16:10:31;22.50;81.30
15997;DHT22;8103;51.340;12.326;2023-07-31T16:12:58;22.50;81.50